Time;durP1;ratioP1;P1;durP2;ratioP2;P2;SDS_P1;SDS_P2;PMS_P1;PMS_P2;Temp;Humidity;BMP_temperature;BMP_pressure;BME280_temperature;BME280_humidity;BME280_pressure;Samples;Min_cycle;Max_cycle;Signal;HPM_P1;HPM_P2
2022/06/22 00:01:20;;;;;;;;;;;17.40;92.00;;;;;;5086122;28;19932;-89
2022/06/22 00:03:51;;;;;;;;;;;17.00;92.20;;;;;;5085980;28;19924;-89
2022/06/22 00:06:24;;;;;;;;;;;16.90;92.10;;;;;;5085473;28;19924;-88
2022/06/22 00:09:00;;;;;;;;;;;16.40;92.30;;;;;;5067278;28;19929;-90
2022/06/22 00:11:28;;;;;;;;;;;16.80;92.70;;;;;;5071968;28;19928;-92
2022/06/22 00:14:03;;;;;;;;;;;16.70;92.50;;;;;;5073869;28;20649;-87
2022/06/22 00:16:33;;;;;;;;;;;16.90;92.80;;;;;;5067853;28;20562;-89
2022/06/22 00:19:17;;;;;;;;;;;16.70;92.80;;;;;;5067261;28;19928;-89
2022/06/22 00:21:49;;;;;;;;;;;16.70;92.80;;;;;;5051012;28;19939;-89
2022/06/22 00:24:22;;;;;;;;;;;16.70;93.10;;;;;;5065794;28;19928;-88
2022/06/22 00:27:00;;;;;;;;;;;16.90;93.60;;;;;;5099310;28;19935;-88
2022/06/22 00:29:36;;;;;;;;;;;16.80;93.00;;;;;;5067668;28;19935;-90
2022/06/22 00:32:13;;;;;;;;;;;14.80;92.40;;;;;;5086223;28;19924;-91
2022/06/22 00:34:43;;;;;;;;;;;16.60;93.10;;;;;;5083408;28;19924;-93
2022/06/22 00:37:11;;;;;;;;;;;16.50;93.20;;;;;;5069129;28;19924;-90
2022/06/22 00:39:42;;;;;;;;;;;16.50;93.50;;;;;;5094760;28;19934;-91
2022/06/22 00:42:21;;;;;;;;;;;16.50;93.30;;;;;;5068851;28;19962;-92
2022/06/22 00:45:08;;;;;;;;;;;16.40;93.70;;;;;;5072159;28;19928;-90
2022/06/22 00:47:46;;;;;;;;;;;16.40;93.70;;;;;;5108476;28;19931;-90
2022/06/22 00:50:22;;;;;;;;;;;16.30;93.70;;;;;;5100867;28;19924;-88
2022/06/22 00:52:52;;;;;;;;;;;16.20;93.70;;;;;;5108391;28;19931;-88
2022/06/22 00:55:31;;;;;;;;;;;16.10;93.70;;;;;;5109036;28;19924;-89
2022/06/22 00:58:09;;;;;;;;;;;16.00;94.00;;;;;;5087008;28;20397;-89
2022/06/22 01:00:40;;;;;;;;;;;16.10;94.20;;;;;;5104460;28;20268;-88
2022/06/22 01:03:33;;;;;;;;;;;16.00;94.40;;;;;;5087245;28;19935;-88
2022/06/22 01:06:19;;;;;;;;;;;15.90;94.20;;;;;;5117417;28;20367;-89
2022/06/22 01:08:57;;;;;;;;;;;15.90;94.20;;;;;;5086783;28;19931;-89
2022/06/22 01:14:37;;;;;;;;;;;15.80;94.50;;;;;;5083586;28;19930;-88
2022/06/22 01:17:12;;;;;;;;;;;15.70;94.50;;;;;;5080688;28;20291;-88
2022/06/22 01:19:48;;;;;;;;;;;15.90;94.90;;;;;;5073702;28;19928;-88
2022/06/22 01:22:31;;;;;;;;;;;15.50;95.10;;;;;;5087014;28;20482;-89
2022/06/22 01:25:19;;;;;;;;;;;15.40;95.30;;;;;;5118277;28;19935;-89
2022/06/22 01:27:48;;;;;;;;;;;15.20;95.70;;;;;;5101817;28;19928;-87
2022/06/22 01:30:48;;;;;;;;;;;15.20;96.20;;;;;;5117346;28;19938;-89
2022/06/22 01:33:25;;;;;;;;;;;15.10;96.70;;;;;;5112293;28;19962;-89
2022/06/22 01:35:58;;;;;;;;;;;15.00;96.80;;;;;;5074231;28;19924;-87
2022/06/22 01:38:27;;;;;;;;;;;14.90;96.50;;;;;;5085260;28;19923;-86
2022/06/22 01:41:00;;;;;;;;;;;14.90;96.60;;;;;;5057232;28;19924;-87
2022/06/22 01:43:38;;;;;;;;;;;14.60;96.60;;;;;;5109671;28;19931;-90
2022/06/22 01:46:19;;;;;;;;;;;14.80;96.60;;;;;;5073710;28;19927;-87
2022/06/22 01:48:57;;;;;;;;;;;14.90;96.90;;;;;;5102978;28;19931;-90
2022/06/22 01:51:51;;;;;;;;;;;14.80;97.20;;;;;;5082060;28;19924;-90
2022/06/22 01:54:29;;;;;;;;;;;14.80;97.20;;;;;;5099100;28;19924;-88
2022/06/22 01:57:11;;;;;;;;;;;14.10;97.10;;;;;;5099105;28;19928;-88
2022/06/22 01:59:45;;;;;;;;;;;14.80;97.50;;;;;;5095930;28;20106;-90
2022/06/22 02:02:15;;;;;;;;;;;14.70;97.50;;;;;;5095711;28;19928;-88
2022/06/22 02:04:59;;;;;;;;;;;14.60;97.40;;;;;;5088585;28;20311;-88
2022/06/22 02:07:46;;;;;;;;;;;15.20;97.50;;;;;;5096055;28;19951;-89
2022/06/22 02:10:25;;;;;;;;;;;14.60;97.40;;;;;;5097912;28;19923;-89
2022/06/22 02:13:14;;;;;;;;;;;14.60;97.70;;;;;;5086312;28;19924;-91
2022/06/22 02:15:57;;;;;;;;;;;14.60;97.50;;;;;;5090307;28;19924;-88
2022/06/22 02:18:38;;;;;;;;;;;14.70;97.60;;;;;;5102640;28;19928;-89
2022/06/22 02:21:17;;;;;;;;;;;14.50;97.60;;;;;;5075170;28;19932;-88
2022/06/22 02:23:55;;;;;;;;;;;14.50;97.60;;;;;;5103669;28;20448;-89
2022/06/22 02:26:47;;;;;;;;;;;14.50;98.00;;;;;;5102563;28;19928;-88
2022/06/22 02:29:21;;;;;;;;;;;14.40;98.20;;;;;;5085376;28;19923;-89
2022/06/22 02:32:00;;;;;;;;;;;14.30;98.30;;;;;;5086059;28;19931;-88
2022/06/22 02:34:47;;;;;;;;;;;14.30;98.30;;;;;;5122525;28;19923;-87
2022/06/22 02:37:22;;;;;;;;;;;14.20;98.30;;;;;;5086429;28;19924;-88
2022/06/22 02:40:02;;;;;;;;;;;14.00;98.40;;;;;;5103359;28;20711;-88
2022/06/22 02:45:23;;;;;;;;;;;14.10;98.50;;;;;;5093117;28;19928;-87
2022/06/22 02:47:53;;;;;;;;;;;14.10;98.60;;;;;;5106001;28;19924;-88
2022/06/22 02:50:28;;;;;;;;;;;14.00;99.00;;;;;;5107842;28;19932;-88
2022/06/22 02:53:00;;;;;;;;;;;14.00;98.80;;;;;;5088890;28;19931;-88
2022/06/22 02:55:32;;;;;;;;;;;13.90;98.90;;;;;;5077604;28;19946;-87
2022/06/22 02:58:03;;;;;;;;;;;13.90;98.90;;;;;;5106750;28;19924;-88
2022/06/22 03:00:38;;;;;;;;;;;13.90;99.70;;;;;;5093078;28;19934;-89
2022/06/22 03:03:10;;;;;;;;;;;13.80;99.20;;;;;;5107396;28;20299;-88
2022/06/22 03:05:45;;;;;;;;;;;14.00;99.40;;;;;;5075706;28;19928;-91
2022/06/22 03:08:19;;;;;;;;;;;13.70;99.20;;;;;;5105567;28;20509;-88
2022/06/22 03:10:50;;;;;;;;;;;13.80;99.20;;;;;;5123276;28;20187;-89
2022/06/22 03:13:20;;;;;;;;;;;13.80;99.10;;;;;;5091251;28;19938;-88
2022/06/22 03:16:07;;;;;;;;;;;14.30;99.60;;;;;;5111366;28;19924;-87
2022/06/22 03:18:50;;;;;;;;;;;12.70;99.00;;;;;;5113737;28;19931;-90
2022/06/22 03:21:20;;;;;;;;;;;13.80;99.10;;;;;;5111040;28;19924;-88
2022/06/22 03:24:30;;;;;;;;;;;13.70;99.00;;;;;;5085952;28;19934;-88
2022/06/22 03:27:08;;;;;;;;;;;13.70;99.10;;;;;;5094210;28;19932;-91
2022/06/22 03:29:58;;;;;;;;;;;14.00;99.40;;;;;;5113198;28;19934;-88
2022/06/22 03:32:30;;;;;;;;;;;13.40;99.40;;;;;;5080705;28;19928;-88
2022/06/22 03:35:06;;;;;;;;;;;13.60;99.30;;;;;;5111411;28;19912;-87
2022/06/22 03:37:43;;;;;;;;;;;13.60;99.30;;;;;;5088907;28;19922;-86
2022/06/22 03:40:27;;;;;;;;;;;13.60;99.40;;;;;;5103021;28;19935;-87
2022/06/22 03:43:04;;;;;;;;;;;13.50;99.60;;;;;;5139220;27;20481;-88
2022/06/22 03:45:37;;;;;;;;;;;13.50;99.50;;;;;;5126046;27;19931;-87
2022/06/22 03:48:10;;;;;;;;;;;13.40;99.50;;;;;;5082445;28;19947;-86
2022/06/22 03:50:46;;;;;;;;;;;13.40;99.50;;;;;;5072869;28;20032;-89
2022/06/22 03:53:37;;;;;;;;;;;13.40;99.70;;;;;;5108676;28;19934;-87
2022/06/22 03:56:10;;;;;;;;;;;13.40;99.70;;;;;;5075516;28;19930;-87
2022/06/22 03:58:50;;;;;;;;;;;13.40;99.80;;;;;;5097407;28;19924;-89
2022/06/22 04:01:21;;;;;;;;;;;12.80;99.60;;;;;;5107418;28;19923;-91
2022/06/22 04:03:55;;;;;;;;;;;12.00;99.50;;;;;;5128429;28;19930;-88
2022/06/22 04:06:31;;;;;;;;;;;13.30;99.90;;;;;;5073673;28;19924;-88
2022/06/22 04:09:01;;;;;;;;;;;13.30;99.90;;;;;;5107085;28;20268;-89
2022/06/22 04:11:51;;;;;;;;;;;13.30;99.90;;;;;;5102315;28;19938;-87
2022/06/22 04:14:44;;;;;;;;;;;13.30;99.90;;;;;;5088406;28;19924;-90
2022/06/22 04:17:46;;;;;;;;;;;14.90;99.90;;;;;;5067135;28;19923;-90
2022/06/22 04:20:54;;;;;;;;;;;13.40;99.90;;;;;;5058500;28;19951;-87
2022/06/22 04:23:45;;;;;;;;;;;14.90;99.90;;;;;;5126941;28;19924;-89
2022/06/22 04:26:21;;;;;;;;;;;13.20;99.90;;;;;;5126361;28;19946;-88
2022/06/22 04:29:14;;;;;;;;;;;13.40;99.90;;;;;;5089960;28;19930;-90
2022/06/22 04:35:19;;;;;;;;;;;13.50;99.90;;;;;;5106694;28;20389;-87
2022/06/22 04:38:09;;;;;;;;;;;13.50;99.90;;;;;;5080451;28;19935;-87
2022/06/22 04:40:45;;;;;;;;;;;13.40;99.90;;;;;;5093374;28;19923;-88
2022/06/22 04:43:14;;;;;;;;;;;13.50;99.90;;;;;;5113112;28;19934;-90
2022/06/22 04:45:53;;;;;;;;;;;13.50;99.90;;;;;;5116230;28;19918;-88
2022/06/22 04:48:31;;;;;;;;;;;13.50;99.90;;;;;;5117108;28;19928;-88
2022/06/22 04:51:03;;;;;;;;;;;13.50;99.90;;;;;;5103282;28;19913;-87
2022/06/22 04:53:34;;;;;;;;;;;13.50;99.90;;;;;;5110265;28;19924;-88
2022/06/22 04:56:07;;;;;;;;;;;13.60;99.90;;;;;;5123987;28;19924;-87
2022/06/22 04:58:46;;;;;;;;;;;13.80;99.90;;;;;;5127646;28;19930;-89
2022/06/22 05:05:03;;;;;;;;;;;13.80;99.90;;;;;;5098339;28;19912;-87
2022/06/22 05:07:42;;;;;;;;;;;13.80;99.90;;;;;;5085144;28;19911;-87
2022/06/22 05:10:15;;;;;;;;;;;14.00;99.90;;;;;;5081703;28;19918;-87
2022/06/22 05:12:53;;;;;;;;;;;14.10;99.90;;;;;;5082530;28;19923;-90
2022/06/22 05:15:31;;;;;;;;;;;14.10;99.90;;;;;;5109566;28;19938;-87
2022/06/22 05:18:04;;;;;;;;;;;14.40;99.90;;;;;;5090791;28;19931;-87
2022/06/22 05:20:48;;;;;;;;;;;14.30;99.90;;;;;;5127915;28;19924;-89
2022/06/22 05:23:35;;;;;;;;;;;14.40;99.90;;;;;;5121671;28;19930;-88
2022/06/22 05:26:18;;;;;;;;;;;14.60;99.90;;;;;;5107600;28;19924;-88
2022/06/22 05:29:07;;;;;;;;;;;14.50;99.90;;;;;;5086149;28;20282;-88
2022/06/22 05:31:47;;;;;;;;;;;14.60;99.90;;;;;;5117757;28;19935;-89
2022/06/22 05:34:42;;;;;;;;;;;14.60;99.90;;;;;;5107669;28;20502;-89
2022/06/22 05:37:30;;;;;;;;;;;14.80;99.90;;;;;;5101162;28;19924;-88
2022/06/22 05:40:13;;;;;;;;;;;14.80;99.90;;;;;;5126631;28;19924;-90
2022/06/22 05:42:42;;;;;;;;;;;14.80;99.90;;;;;;5099944;28;19946;-88
2022/06/22 05:45:32;;;;;;;;;;;14.90;99.90;;;;;;5107351;28;20416;-88
2022/06/22 05:48:02;;;;;;;;;;;15.00;99.90;;;;;;5070956;28;19928;-88
2022/06/22 05:50:54;;;;;;;;;;;14.90;99.90;;;;;;5105719;28;19943;-89
2022/06/22 05:53:41;;;;;;;;;;;15.00;99.90;;;;;;5111355;28;20658;-90
2022/06/22 05:56:36;;;;;;;;;;;;;;;;;;;;;
2022/06/22 05:59:50;;;;;;;;;;;14.80;99.90;;;;;;5123659;28;20334;-90
2022/06/22 06:03:00;;;;;;;;;;;15.30;99.90;;;;;;5091926;28;19935;-87
2022/06/22 06:05:44;;;;;;;;;;;15.50;99.90;;;;;;5096411;28;19928;-89
2022/06/22 06:08:34;;;;;;;;;;;15.40;99.90;;;;;;5098812;28;19927;-88
2022/06/22 06:11:11;;;;;;;;;;;16.90;99.90;;;;;;5102907;28;19924;-87
2022/06/22 06:13:45;;;;;;;;;;;16.30;99.90;;;;;;5103162;28;20401;-91
2022/06/22 06:16:26;;;;;;;;;;;15.60;99.90;;;;;;5119058;28;19935;-91
2022/06/22 06:19:01;;;;;;;;;;;15.60;99.90;;;;;;5110514;28;19934;-87
2022/06/22 06:21:40;;;;;;;;;;;15.70;99.90;;;;;;5117706;28;19924;-85
2022/06/22 06:24:35;;;;;;;;;;;15.70;99.90;;;;;;5092425;28;19923;-85
2022/06/22 06:30:38;;;;;;;;;;;16.40;99.90;;;;;;5091874;28;19924;-89
2022/06/22 06:33:35;;;;;;;;;;;16.20;99.90;;;;;;5031529;28;19934;-86
2022/06/22 06:36:12;;;;;;;;;;;16.30;99.90;;;;;;5045558;28;19936;-89
2022/06/22 06:38:48;;;;;;;;;;;16.60;99.90;;;;;;5092138;28;19931;-86
2022/06/22 06:41:32;;;;;;;;;;;16.50;99.90;;;;;;5081944;28;19930;-87
2022/06/22 06:44:05;;;;;;;;;;;16.60;99.90;;;;;;5090704;28;20280;-88
2022/06/22 06:46:49;;;;;;;;;;;16.70;99.90;;;;;;5087186;28;19923;-86
2022/06/22 06:49:50;;;;;;;;;;;16.70;99.90;;;;;;5098070;28;19924;-86
2022/06/22 06:52:29;;;;;;;;;;;17.10;99.90;;;;;;5084900;28;19932;-87
2022/06/22 06:55:00;;;;;;;;;;;16.90;99.90;;;;;;4749468;28;10000008;-87
2022/06/22 06:57:31;;;;;;;;;;;17.00;99.90;;;;;;5103313;28;19924;-87
2022/06/22 07:00:03;;;;;;;;;;;17.10;99.90;;;;;;5111770;28;19940;-87
2022/06/22 07:02:40;;;;;;;;;;;17.10;99.90;;;;;;5113873;28;19960;-86
2022/06/22 07:05:25;;;;;;;;;;;17.30;99.90;;;;;;5098969;28;19919;-86
2022/06/22 07:08:21;;;;;;;;;;;17.40;99.90;;;;;;5092448;28;19916;-87
2022/06/22 07:11:21;;;;;;;;;;;17.50;99.90;;;;;;5072013;28;19932;-86
2022/06/22 07:14:11;;;;;;;;;;;17.50;99.90;;;;;;5074681;28;19939;-88
2022/06/22 07:16:42;;;;;;;;;;;17.60;99.90;;;;;;5069615;28;19932;-88
2022/06/22 07:19:24;;;;;;;;;;;17.70;99.80;;;;;;5071310;28;19924;-89
2022/06/22 07:22:07;;;;;;;;;;;17.70;99.20;;;;;;5106020;28;19924;-88
2022/06/22 07:24:52;;;;;;;;;;;17.80;99.10;;;;;;5069475;28;19924;-88
2022/06/22 07:27:20;;;;;;;;;;;17.80;99.10;;;;;;5070458;28;19924;-88
2022/06/22 07:30:00;;;;;;;;;;;17.90;99.20;;;;;;5106895;28;20319;-89
2022/06/22 07:32:36;;;;;;;;;;;17.00;98.10;;;;;;5080758;28;20456;-87
2022/06/22 07:35:24;;;;;;;;;;;18.10;98.20;;;;;;5075359;28;19908;-85
2022/06/22 07:38:03;;;;;;;;;;;18.20;98.20;;;;;;5055531;28;19924;-87
2022/06/22 07:43:37;;;;;;;;;;;18.30;97.30;;;;;;5104647;28;19924;-89
2022/06/22 07:46:37;;;;;;;;;;;18.40;97.30;;;;;;5079022;28;19927;-88
2022/06/22 07:49:10;;;;;;;;;;;18.60;96.90;;;;;;5087338;28;20570;-87
2022/06/22 07:51:43;;;;;;;;;;;18.60;96.60;;;;;;5083823;28;19916;-86
2022/06/22 07:54:29;;;;;;;;;;;18.70;96.60;;;;;;5098461;28;20449;-86
2022/06/22 07:56:58;;;;;;;;;;;18.70;95.60;;;;;;5101039;28;19931;-85
2022/06/22 07:59:27;;;;;;;;;;;18.90;95.20;;;;;;5099473;28;19935;-86
2022/06/22 08:02:05;;;;;;;;;;;18.70;93.60;;;;;;5083005;28;20117;-88
2022/06/22 08:04:40;;;;;;;;;;;19.10;92.90;;;;;;5080352;28;19939;-83
2022/06/22 08:07:13;;;;;;;;;;;19.20;93.30;;;;;;5095469;28;19934;-85
2022/06/22 08:09:51;;;;;;;;;;;19.40;92.90;;;;;;5113352;28;19928;-85
2022/06/22 08:12:24;;;;;;;;;;;19.40;92.70;;;;;;5081841;28;20306;-85
2022/06/22 08:14:54;;;;;;;;;;;19.60;91.60;;;;;;5080080;28;19928;-86
2022/06/22 08:17:30;;;;;;;;;;;19.70;92.00;;;;;;5103504;28;19924;-83
2022/06/22 08:20:00;;;;;;;;;;;19.70;92.20;;;;;;5095839;28;19928;-85
2022/06/22 08:22:54;;;;;;;;;;;19.80;92.10;;;;;;5086496;28;19947;-86
2022/06/22 08:26:01;;;;;;;;;;;;;;;;;;;;;
2022/06/22 08:28:30;;;;;;;;;;;20.00;91.20;;;;;;5084795;28;19924;-85
2022/06/22 08:31:00;;;;;;;;;;;20.10;91.20;;;;;;5085075;28;19928;-86
2022/06/22 08:33:37;;;;;;;;;;;20.20;91.40;;;;;;5089842;28;19924;-82
2022/06/22 08:36:28;;;;;;;;;;;20.30;90.50;;;;;;5088750;28;19924;-87
2022/06/22 08:39:20;;;;;;;;;;;20.30;90.20;;;;;;5098278;28;19931;-86
2022/06/22 08:41:52;;;;;;;;;;;20.30;90.30;;;;;;5087373;28;19942;-83
2022/06/22 08:44:37;;;;;;;;;;;20.30;87.50;;;;;;5081552;28;19925;-83
2022/06/22 08:47:13;;;;;;;;;;;20.60;88.20;;;;;;5123980;28;20006;-84
2022/06/22 08:50:00;;;;;;;;;;;20.70;88.90;;;;;;5087447;28;19934;-83
2022/06/22 08:52:54;;;;;;;;;;;20.80;87.80;;;;;;5131279;28;19934;-84
2022/06/22 08:55:43;;;;;;;;;;;20.90;88.80;;;;;;5107286;28;20292;-84
2022/06/22 08:58:34;;;;;;;;;;;21.00;88.60;;;;;;4735476;28;10000312;-84
2022/06/22 09:01:01;;;;;;;;;;;21.10;88.70;;;;;;5089061;28;19913;-83
2022/06/22 09:03:49;;;;;;;;;;;21.20;85.70;;;;;;5084713;28;19928;-83
2022/06/22 09:06:36;;;;;;;;;;;21.30;83.50;;;;;;5109977;28;20150;-84
2022/06/22 09:09:23;;;;;;;;;;;21.40;84.00;;;;;;5128689;28;19924;-85
2022/06/22 09:12:30;;;;;;;;;;;22.10;82.50;;;;;;5127761;28;19934;-83
2022/06/22 09:15:34;;;;;;;;;;;21.60;82.30;;;;;;5128213;28;19935;-84
2022/06/22 09:19:00;;;;;;;;;;;21.80;81.90;;;;;;5109476;28;19930;-82
2022/06/22 09:22:02;;;;;;;;;;;21.90;81.10;;;;;;5093990;28;20005;-84
2022/06/22 09:24:50;;;;;;;;;;;21.90;78.80;;;;;;5125952;28;20831;-82
2022/06/22 09:27:38;;;;;;;;;;;22.10;77.10;;;;;;5108295;28;19924;-82
2022/06/22 09:30:11;;;;;;;;;;;22.20;73.00;;;;;;5127558;28;19930;-83
2022/06/22 09:33:05;;;;;;;;;;;22.20;74.10;;;;;;5106860;28;19930;-83
2022/06/22 09:35:55;;;;;;;;;;;22.30;74.70;;;;;;5112966;28;19928;-84
2022/06/22 09:39:00;;;;;;;;;;;22.40;74.40;;;;;;5101012;28;19923;-82
2022/06/22 09:41:47;;;;;;;;;;;22.50;73.90;;;;;;5031025;28;19929;-84
2022/06/22 09:44:15;;;;;;;;;;;22.70;74.70;;;;;;5110992;28;19935;-85
2022/06/22 09:46:42;;;;;;;;;;;22.80;74.30;;;;;;5119306;28;19927;-84
2022/06/22 09:49:16;;;;;;;;;;;22.80;73.40;;;;;;5097716;28;19924;-84
2022/06/22 09:51:51;;;;;;;;;;;22.90;73.60;;;;;;5114807;28;19931;-84
2022/06/22 09:57:34;;;;;;;;;;;23.10;74.80;;;;;;5130922;27;20299;-85
2022/06/22 10:00:04;;;;;;;;;;;23.20;75.50;;;;;;5118905;28;19932;-84
2022/06/22 10:02:55;;;;;;;;;;;23.30;75.00;;;;;;5118318;28;19928;-83
2022/06/22 10:05:24;;;;;;;;;;;23.40;75.40;;;;;;5118180;28;20021;-83
2022/06/22 10:08:13;;;;;;;;;;;22.70;75.40;;;;;;5100534;28;19927;-84
2022/06/22 10:11:15;;;;;;;;;;;23.50;75.70;;;;;;5085223;28;19932;-85
2022/06/22 10:13:55;;;;;;;;;;;23.70;76.20;;;;;;5050484;28;20036;-86
2022/06/22 10:16:26;;;;;;;;;;;23.80;75.50;;;;;;5106817;28;19935;-87
2022/06/22 10:19:16;;;;;;;;;;;23.90;76.60;;;;;;5126951;27;19935;-83
2022/06/22 10:22:10;;;;;;;;;;;24.00;76.20;;;;;;5141626;27;19924;-86
2022/06/22 10:24:54;;;;;;;;;;;23.90;76.20;;;;;;5087638;28;19924;-85
2022/06/22 10:27:42;;;;;;;;;;;24.10;76.40;;;;;;5122628;28;19924;-82
2022/06/22 10:30:15;;;;;;;;;;;24.30;73.50;;;;;;5094122;28;19951;-81
2022/06/22 10:32:51;;;;;;;;;;;24.30;73.40;;;;;;5107265;28;19951;-84
2022/06/22 10:35:57;;;;;;;;;;;24.40;73.60;;;;;;5123495;28;19927;-85
2022/06/22 10:38:45;;;;;;;;;;;24.50;74.70;;;;;;5130893;28;19924;-84
2022/06/22 10:47:36;;;;;;;;;;;24.80;71.30;;;;;;5089057;28;19928;-84
2022/06/22 10:50:23;;;;;;;;;;;24.80;70.00;;;;;;5105682;28;19928;-85
2022/06/22 10:53:22;;;;;;;;;;;25.60;69.80;;;;;;5087433;28;19928;-84
2022/06/22 10:55:57;;;;;;;;;;;25.00;70.90;;;;;;5103775;28;19931;-84
2022/06/22 10:58:39;;;;;;;;;;;25.10;69.90;;;;;;5111259;28;19922;-86
2022/06/22 11:01:34;;;;;;;;;;;24.80;70.20;;;;;;5126855;28;19924;-83
2022/06/22 11:04:43;;;;;;;;;;;25.40;69.80;;;;;;5126764;28;19924;-87
2022/06/22 11:07:29;;;;;;;;;;;25.50;70.20;;;;;;5037628;28;19925;-84
2022/06/22 11:09:56;;;;;;;;;;;25.40;70.40;;;;;;5110854;28;19923;-83
2022/06/22 11:12:43;;;;;;;;;;;25.30;71.10;;;;;;5098078;28;19927;-83
2022/06/22 11:15:11;;;;;;;;;;;25.20;70.80;;;;;;5084422;28;19930;-84
2022/06/22 11:18:02;;;;;;;;;;;25.30;72.20;;;;;;5088544;28;19924;-85
2022/06/22 11:20:40;;;;;;;;;;;25.10;71.90;;;;;;5105730;28;19931;-83
2022/06/22 11:23:10;;;;;;;;;;;25.10;72.00;;;;;;5115329;28;19934;-88
2022/06/22 11:32:04;;;;;;;;;;;25.20;72.20;;;;;;5088366;28;19931;-86
2022/06/22 11:34:51;;;;;;;;;;;25.40;72.60;;;;;;5103746;28;19939;-85
2022/06/22 11:37:42;;;;;;;;;;;25.60;71.60;;;;;;5102910;28;19928;-86
2022/06/22 11:40:42;;;;;;;;;;;25.40;71.80;;;;;;5079514;28;20614;-86
2022/06/22 11:43:20;;;;;;;;;;;25.50;71.00;;;;;;5104574;28;19947;-87
2022/06/22 11:45:59;;;;;;;;;;;25.40;70.40;;;;;;5105325;28;19924;-89
2022/06/22 11:49:04;;;;;;;;;;;;;;;;;;;;;
2022/06/22 11:51:51;;;;;;;;;;;25.80;70.70;;;;;;5104393;28;19928;-85
2022/06/22 11:54:56;;;;;;;;;;;26.00;70.70;;;;;;5113631;28;19908;-87
2022/06/22 11:57:55;;;;;;;;;;;26.20;70.90;;;;;;5092184;28;19924;-87
2022/06/22 12:00:42;;;;;;;;;;;27.70;71.20;;;;;;5111256;28;19924;-88
2022/06/22 12:03:32;;;;;;;;;;;26.40;69.80;;;;;;5103520;28;19935;-87
2022/06/22 12:06:21;;;;;;;;;;;26.40;69.70;;;;;;5105796;28;19924;-86
2022/06/22 12:08:57;;;;;;;;;;;26.50;69.60;;;;;;5070943;28;20259;-85
2022/06/22 12:11:31;;;;;;;;;;;26.60;69.60;;;;;;5099088;28;19928;-87
2022/06/22 12:17:23;;;;;;;;;;;26.60;68.30;;;;;;5120404;28;20310;-85
2022/06/22 12:20:14;;;;;;;;;;;26.80;68.20;;;;;;5115180;28;19930;-85
2022/06/22 12:23:01;;;;;;;;;;;26.40;68.50;;;;;;5087955;28;19928;-87
2022/06/22 12:25:31;;;;;;;;;;;26.70;68.70;;;;;;5101165;28;19924;-86
2022/06/22 12:28:10;;;;;;;;;;;26.80;68.30;;;;;;5124564;28;19922;-88
2022/06/22 12:31:02;;;;;;;;;;;26.80;68.20;;;;;;5121478;28;19932;-86
2022/06/22 12:33:35;;;;;;;;;;;26.90;67.60;;;;;;5085850;28;19925;-91
2022/06/22 12:36:15;;;;;;;;;;;27.60;68.80;;;;;;5084682;28;19931;-88
2022/06/22 12:38:52;;;;;;;;;;;27.00;67.80;;;;;;5086731;28;19934;-87
2022/06/22 12:41:37;;;;;;;;;;;27.20;66.80;;;;;;5104749;28;19934;-93
2022/06/22 12:44:46;;;;;;;;;;;27.10;68.00;;;;;;5109775;28;19931;-86
2022/06/22 12:48:27;;;;;;;;;;;27.10;67.10;;;;;;5102650;28;19931;-87
2022/06/22 12:51:04;;;;;;;;;;;27.10;67.30;;;;;;5083729;28;19939;-90
2022/06/22 12:53:52;;;;;;;;;;;27.30;67.40;;;;;;5107665;28;19907;-87
2022/06/22 12:59:51;;;;;;;;;;;27.40;67.30;;;;;;5121175;28;19930;-88
2022/06/22 13:02:44;;;;;;;;;;;27.60;66.80;;;;;;5125773;28;19924;-95
2022/06/22 13:05:22;;;;;;;;;;;27.70;66.80;;;;;;5103233;28;19928;-87
2022/06/22 13:08:01;;;;;;;;;;;27.70;66.40;;;;;;5100954;28;19932;-87
2022/06/22 13:10:33;;;;;;;;;;;27.80;66.10;;;;;;5101166;28;19928;-89
2022/06/22 13:13:17;;;;;;;;;;;28.00;66.90;;;;;;5101803;28;19931;-89
2022/06/22 13:15:55;;;;;;;;;;;28.00;66.60;;;;;;5103205;28;19924;-93
2022/06/22 13:18:27;;;;;;;;;;;28.20;66.00;;;;;;5123530;28;19923;-90
2022/06/22 13:21:01;;;;;;;;;;;28.30;66.00;;;;;;5103308;28;19935;-88
2022/06/22 13:23:53;;;;;;;;;;;28.50;66.10;;;;;;5088913;28;19928;-88
2022/06/22 13:26:26;;;;;;;;;;;28.60;65.70;;;;;;5104777;28;19934;-89
2022/06/22 13:29:54;;;;;;;;;;;28.60;65.30;;;;;;5114029;28;19931;-90
2022/06/22 13:32:30;;;;;;;;;;;28.70;65.00;;;;;;5105409;28;19924;-88
2022/06/22 13:35:08;;;;;;;;;;;28.70;65.70;;;;;;5083552;28;19924;-91
2022/06/22 13:38:28;;;;;;;;;;;28.70;64.90;;;;;;5075061;28;19928;-89
2022/06/22 13:41:31;;;;;;;;;;;28.60;65.20;;;;;;5118171;28;19935;-88
2022/06/22 13:44:11;;;;;;;;;;;28.90;65.90;;;;;;5087513;28;19928;-88
2022/06/22 13:46:41;;;;;;;;;;;29.50;65.20;;;;;;5100770;28;19924;-91
2022/06/22 13:49:23;;;;;;;;;;;28.40;64.30;;;;;;5105794;28;19936;-88
2022/06/22 13:51:57;;;;;;;;;;;29.10;65.10;;;;;;5113719;28;19927;-87
2022/06/22 13:54:49;;;;;;;;;;;29.20;65.20;;;;;;5131196;28;19923;-88
2022/06/22 13:57:34;;;;;;;;;;;29.30;65.00;;;;;;5081999;28;19924;-91
2022/06/22 14:00:11;;;;;;;;;;;29.50;64.90;;;;;;5105413;28;20496;-87
2022/06/22 14:02:39;;;;;;;;;;;29.70;65.00;;;;;;5087656;28;19935;-88
2022/06/22 14:08:11;;;;;;;;;;;29.60;64.20;;;;;;5091886;28;19928;-86
2022/06/22 14:10:52;;;;;;;;;;;29.60;64.90;;;;;;5099134;28;19939;-85
2022/06/22 14:13:25;;;;;;;;;;;29.90;64.50;;;;;;5117630;28;19932;-86
2022/06/22 14:16:05;;;;;;;;;;;29.80;64.20;;;;;;5121160;28;19923;-86
2022/06/22 14:18:39;;;;;;;;;;;30.00;64.00;;;;;;5119087;28;19939;-86
2022/06/22 14:21:20;;;;;;;;;;;29.80;64.20;;;;;;5119622;28;20029;-89
2022/06/22 14:23:50;;;;;;;;;;;29.70;64.40;;;;;;5067005;28;20237;-89
2022/06/22 14:26:22;;;;;;;;;;;29.90;64.20;;;;;;5083038;28;19928;-85
2022/06/22 14:29:04;;;;;;;;;;;29.40;63.40;;;;;;5121575;28;19924;-85
2022/06/22 14:31:38;;;;;;;;;;;30.20;63.70;;;;;;5118998;28;19924;-84
2022/06/22 14:34:22;;;;;;;;;;;30.30;63.30;;;;;;4747520;28;10000385;-85
2022/06/22 14:37:08;;;;;;;;;;;30.50;63.20;;;;;;5101812;28;19934;-85
2022/06/22 14:39:43;;;;;;;;;;;30.60;62.70;;;;;;5083476;28;19935;-85
2022/06/22 14:42:20;;;;;;;;;;;30.80;63.20;;;;;;5118843;28;19927;-86
2022/06/22 14:45:23;;;;;;;;;;;;;;;;;;;;;
2022/06/22 14:48:51;;;;;;;;;;;30.90;62.00;;;;;;5070890;28;19928;-85
2022/06/22 14:51:29;;;;;;;;;;;30.60;62.60;;;;;;5077190;28;19934;-85
2022/06/22 14:54:11;;;;;;;;;;;32.10;62.40;;;;;;5126540;28;20231;-85
2022/06/22 14:57:10;;;;;;;;;;;31.00;62.00;;;;;;5125413;28;19927;-87
2022/06/22 14:59:58;;;;;;;;;;;31.20;61.90;;;;;;5106493;28;19920;-85
2022/06/22 15:02:34;;;;;;;;;;;31.30;62.00;;;;;;5104860;28;20117;-86
2022/06/22 15:05:10;;;;;;;;;;;31.70;61.80;;;;;;5088857;27;19931;-85
2022/06/22 15:07:49;;;;;;;;;;;31.90;61.90;;;;;;5105016;28;19935;-85
2022/06/22 15:10:26;;;;;;;;;;;31.70;60.80;;;;;;5100984;28;19924;-86
2022/06/22 15:12:56;;;;;;;;;;;32.00;61.50;;;;;;5089442;28;19939;-86
2022/06/22 15:15:27;;;;;;;;;;;32.00;61.00;;;;;;5121713;28;19935;-85
2022/06/22 15:17:58;;;;;;;;;;;32.10;61.10;;;;;;5105384;28;19934;-85
2022/06/22 15:20:33;;;;;;;;;;;32.90;61.00;;;;;;5103576;28;19923;-85
2022/06/22 15:23:07;;;;;;;;;;;32.50;60.60;;;;;;5108472;28;19927;-87
2022/06/22 15:25:52;;;;;;;;;;;32.40;60.40;;;;;;5123551;28;19923;-84
2022/06/22 15:28:24;;;;;;;;;;;32.10;60.70;;;;;;5104076;28;19939;-86
2022/06/22 15:30:53;;;;;;;;;;;32.00;60.40;;;;;;5104498;27;19931;-86
2022/06/22 15:33:26;;;;;;;;;;;32.10;60.80;;;;;;5099503;28;20678;-86
2022/06/22 15:36:20;;;;;;;;;;;32.50;60.40;;;;;;5122424;27;19927;-87
2022/06/22 15:38:58;;;;;;;;;;;32.20;60.10;;;;;;5120574;27;19935;-85
2022/06/22 15:42:03;;;;;;;;;;;32.10;59.80;;;;;;5119189;27;19927;-85
2022/06/22 15:45:16;;;;;;;;;;;32.60;60.90;;;;;;5104781;28;19923;-89
2022/06/22 15:48:11;;;;;;;;;;;31.40;59.70;;;;;;5113161;28;19924;-87
2022/06/22 15:50:55;;;;;;;;;;;31.90;60.40;;;;;;5083806;28;19928;-88
2022/06/22 15:53:32;;;;;;;;;;;32.00;59.80;;;;;;5106005;28;19928;-88
2022/06/22 15:56:22;;;;;;;;;;;31.90;59.80;;;;;;5102744;28;19931;-90
2022/06/22 15:59:00;;;;;;;;;;;31.90;60.20;;;;;;5121602;28;19923;-91
2022/06/22 16:01:36;;;;;;;;;;;32.10;59.70;;;;;;5120703;28;19924;-89
2022/06/22 16:04:10;;;;;;;;;;;32.30;60.00;;;;;;5115439;28;19935;-88
2022/06/22 16:06:46;;;;;;;;;;;32.10;59.60;;;;;;5119612;28;19934;-88
2022/06/22 16:09:18;;;;;;;;;;;32.00;59.90;;;;;;5104569;28;19939;-90
2022/06/22 16:15:20;;;;;;;;;;;32.30;59.90;;;;;;5001891;28;19925;-90
2022/06/22 16:17:48;;;;;;;;;;;32.30;59.70;;;;;;5015918;28;19965;-89
2022/06/22 16:20:26;;;;;;;;;;;32.30;59.80;;;;;;5079904;28;20390;-89
2022/06/22 16:23:04;;;;;;;;;;;32.50;59.20;;;;;;5084218;28;19930;-89
2022/06/22 16:25:44;;;;;;;;;;;32.50;59.70;;;;;;5100274;28;19932;-89
2022/06/22 16:28:21;;;;;;;;;;;32.50;59.20;;;;;;5116457;28;19927;-89
2022/06/22 16:31:24;;;;;;;;;;;32.20;59.60;;;;;;5113644;28;19928;-87
2022/06/22 16:34:04;;;;;;;;;;;32.30;59.70;;;;;;5070959;28;19929;-89